Time;durP1;ratioP1;P1;durP2;ratioP2;P2;SDS_P1;SDS_P2;PMS_P1;PMS_P2;Temp;Humidity;BMP_temperature;BMP_pressure;BME280_temperature;BME280_humidity;BME280_pressure;Samples;Min_cycle;Max_cycle;Signal;HPM_P1;HPM_P2
2021/12/19 00:01:06;;;;;;;;;;;;;;;4.58;82.84;99390.05;213713;1322;25342;-71
2021/12/19 00:11:29;;;;;;;;;;;;;;;4.58;82.72;99376.05;213963;1323;22729;-70
2021/12/19 00:16:32;;;;;;;;;;;;;;;4.58;82.64;99375.99;213628;1323;25458;-71
2021/12/19 00:21:35;;;;;;;;;;;;;;;4.59;82.75;99364.84;213681;1324;25400;-72
2021/12/19 00:26:38;;;;;;;;;;;;;;;4.57;82.63;99353.06;213650;1322;26413;-71
2021/12/19 00:31:40;;;;;;;;;;;;;;;4.54;82.75;99352.36;213642;1323;22591;-71
2021/12/19 00:36:42;;;;;;;;;;;;;;;4.52;82.72;99349.14;213928;1323;25332;-71
2021/12/19 00:41:52;;;;;;;;;;;;;;;4.52;82.79;99340.37;213603;1322;22622;-71
2021/12/19 00:47:28;;;;;;;;;;;;;;;4.49;82.68;99334.15;213986;1322;22628;-72
2021/12/19 00:52:35;;;;;;;;;;;;;;;4.47;83.02;99335.33;213971;1324;25345;-71
2021/12/19 00:57:37;;;;;;;;;;;;;;;4.44;82.99;99318.40;214036;1320;22632;-71
2021/12/19 01:02:39;;;;;;;;;;;;;;;4.39;83.03;99324.46;213830;1323;25470;-71
2021/12/19 01:07:42;;;;;;;;;;;;;;;4.39;83.20;99324.83;213814;1323;25252;-71
2021/12/19 01:12:44;;;;;;;;;;;;;;;4.39;83.53;99311.20;213616;1324;25319;-71
2021/12/19 01:17:47;;;;;;;;;;;;;;;4.36;83.51;99300.41;213451;1323;22566;-72
2021/12/19 01:22:50;;;;;;;;;;;;;;;4.30;83.49;99295.20;213809;1322;22582;-71
2021/12/19 01:27:52;;;;;;;;;;;;;;;4.22;83.86;99281.68;213717;1322;24289;-71
2021/12/19 01:33:07;;;;;;;;;;;;;;;4.17;84.10;99271.55;213317;1325;22755;-71
2021/12/19 01:38:23;;;;;;;;;;;;;;;4.14;84.33;99259.57;213712;1323;26469;-71
2021/12/19 01:43:45;;;;;;;;;;;;;;;4.13;84.45;99244.16;213551;1323;23048;-71
2021/12/19 01:48:47;;;;;;;;;;;;;;;4.13;84.40;99236.78;213491;1323;22768;-72
2021/12/19 01:54:01;;;;;;;;;;;;;;;;;;;;;
2021/12/19 01:59:25;;;;;;;;;;;;;;;4.14;84.43;99228.32;213521;1323;22798;-70
2021/12/19 02:04:30;;;;;;;;;;;;;;;4.16;84.65;99219.08;213103;1325;22705;-71
2021/12/19 02:09:36;;;;;;;;;;;;;;;4.18;84.77;99208.24;213834;1324;22804;-71
2021/12/19 02:14:38;;;;;;;;;;;;;;;4.18;84.76;99197.47;213819;1320;22704;-71
2021/12/19 02:19:43;;;;;;;;;;;;;;;4.14;84.63;99180.64;213667;1324;22578;-72
2021/12/19 02:24:57;;;;;;;;;;;;;;;;;;;;;
2021/12/19 02:30:05;;;;;;;;;;;;;;;4.08;84.93;99159.53;213222;1325;22571;-71
2021/12/19 02:35:11;;;;;;;;;;;;;;;4.06;85.07;99146.40;213468;1325;22563;-72
2021/12/19 02:51:23;;;;;;;;;;;;;;;4.11;84.66;99132.70;213238;1325;22570;-71
2021/12/19 02:56:33;;;;;;;;;;;;;;;4.12;84.88;99118.70;213581;1323;25512;-71
2021/12/19 03:01:43;;;;;;;;;;;;;;;4.11;84.76;99102.58;213745;1323;24283;-71
2021/12/19 03:06:52;;;;;;;;;;;;;;;4.11;84.65;99092.70;213559;1324;24287;-71
2021/12/19 03:12:31;;;;;;;;;;;;;;;4.12;84.65;99077.45;213562;1323;22647;-71
2021/12/19 03:18:00;;;;;;;;;;;;;;;4.17;84.78;99064.92;213837;1323;24355;-71
2021/12/19 03:23:02;;;;;;;;;;;;;;;4.20;84.38;99052.36;213623;1325;25378;-70
2021/12/19 03:28:10;;;;;;;;;;;;;;;4.20;84.53;99031.67;213859;1324;22588;-70
2021/12/19 03:33:16;;;;;;;;;;;;;;;4.16;84.49;99006.47;213616;1324;22581;-71
2021/12/19 03:38:25;;;;;;;;;;;;;;;4.16;84.49;99002.44;213547;1325;22569;-71
2021/12/19 03:43:34;;;;;;;;;;;;;;;4.16;84.47;98995.92;213600;1325;23278;-71
2021/12/19 03:48:36;;;;;;;;;;;;;;;4.15;84.37;98990.02;213524;1324;22632;-71
2021/12/19 03:53:38;;;;;;;;;;;;;;;4.15;84.60;98986.15;212651;1325;26440;-72
2021/12/19 03:58:41;;;;;;;;;;;;;;;4.16;84.40;98969.98;213203;1324;22717;-71
2021/12/19 04:03:50;;;;;;;;;;;;;;;4.13;85.09;98957.67;212350;1325;22554;-71
2021/12/19 04:09:03;;;;;;;;;;;;;;;;;;;;;
2021/12/19 04:14:06;;;;;;;;;;;;;;;4.09;84.53;98933.45;213494;1325;22703;-71
2021/12/19 04:19:11;;;;;;;;;;;;;;;4.10;84.65;98935.21;213428;1324;22571;-71
2021/12/19 04:24:14;;;;;;;;;;;;;;;4.09;84.50;98932.45;213503;1323;22558;-72
2021/12/19 04:29:16;;;;;;;;;;;;;;;4.09;84.40;98920.89;213839;1323;22718;-70
2021/12/19 04:34:19;;;;;;;;;;;;;;;4.10;84.20;98911.04;214050;1317;22731;-71
2021/12/19 04:39:37;;;;;;;;;;;;;;;4.10;83.99;98908.23;214362;1323;22572;-70
2021/12/19 05:16:41;;;;;;;;;;;;;;;4.42;82.64;98871.08;213480;1322;22558;-71
2021/12/19 05:21:44;;;;;;;;;;;;;;;4.45;82.46;98863.35;213534;1325;22721;-69
2021/12/19 05:27:09;;;;;;;;;;;;;;;4.49;82.39;98856.46;213421;1318;22653;-71
2021/12/19 05:32:18;;;;;;;;;;;;;;;4.55;82.16;98849.58;213304;1325;22564;-71
2021/12/19 05:48:18;;;;;;;;;;;;;;;4.75;82.20;98858.89;213804;1325;22572;-70
2021/12/19 05:53:34;;;;;;;;;;;;;;;4.79;81.73;98843.70;213390;1324;22650;-71
2021/12/19 05:58:36;;;;;;;;;;;;;;;4.82;81.58;98857.48;213650;1324;22551;-71
2021/12/19 06:03:46;;;;;;;;;;;;;;;4.87;81.84;98861.89;213075;1325;22639;-71
2021/12/19 06:08:48;;;;;;;;;;;;;;;4.93;81.63;98857.45;213192;1324;22623;-71
2021/12/19 06:13:51;;;;;;;;;;;;;;;4.95;81.54;98868.36;213249;1325;22587;-71
2021/12/19 06:19:06;;;;;;;;;;;;;;;4.97;81.21;98872.63;213220;1325;24462;-71
2021/12/19 06:24:09;;;;;;;;;;;;;;;4.99;81.28;98880.06;213224;1324;23027;-71
2021/12/19 06:29:12;;;;;;;;;;;;;;;4.98;81.00;98871.99;213456;1323;24305;-72
2021/12/19 06:34:14;;;;;;;;;;;;;;;4.98;81.12;98858.24;213571;1323;24307;-70
2021/12/19 06:39:17;;;;;;;;;;;;;;;4.96;81.13;98860.02;213707;1323;24307;-70
2021/12/19 06:44:21;;;;;;;;;;;;;;;4.96;81.06;98858.55;213784;1323;22600;-71
2021/12/19 06:49:24;;;;;;;;;;;;;;;4.96;81.02;98854.83;213828;1323;24333;-71
2021/12/19 06:54:28;;;;;;;;;;;;;;;4.95;81.29;98842.44;213445;1323;24324;-72
2021/12/19 06:59:30;;;;;;;;;;;;;;;4.94;81.36;98836.27;213306;1317;24256;-71
2021/12/19 07:04:32;;;;;;;;;;;;;;;4.94;81.41;98835.59;213921;1324;22542;-71
2021/12/19 07:09:47;;;;;;;;;;;;;;;;;;;;;
2021/12/19 07:22:19;;;;;;;;;;;;;;;4.97;81.77;98806.52;213131;1325;26607;-71
2021/12/19 07:27:58;;;;;;;;;;;;;;;;;;;;;
2021/12/19 07:46:04;;;;;;;;;;;;;;;5.10;81.92;98801.91;213381;1324;24241;-71
2021/12/19 07:51:46;;;;;;;;;;;;;;;5.06;82.35;98790.24;213548;1323;23886;-72
2021/12/19 07:57:23;;;;;;;;;;;;;;;5.02;82.37;98784.46;213789;1323;22560;-70
2021/12/19 08:03:32;;;;;;;;;;;;;;;5.01;82.64;98782.50;213728;1320;25422;-71
2021/12/19 08:09:06;;;;;;;;;;;;;;;;;;;;;
2021/12/19 08:22:05;;;;;;;;;;;;;;;4.84;83.59;98793.02;214158;1322;26396;-72
2021/12/19 08:28:32;;;;;;;;;;;;;;;;;;;;;
2021/12/19 08:41:21;;;;;;;;;;;;;;;4.53;86.08;98780.68;213233;1324;22646;-70
2021/12/19 08:47:33;;;;;;;;;;;;;;;4.49;86.65;98779.73;213376;1322;25431;-73
2021/12/19 08:54:04;;;;;;;;;;;;;;;;;;;;;
2021/12/19 09:14:15;;;;;;;;;;;;;;;4.49;87.68;98766.10;212835;1324;25423;-73
2021/12/19 09:27:41;;;;;;;;;;;;;;;4.49;88.11;98761.70;213151;1316;22590;-72
2021/12/19 09:53:11;;;;;;;;;;;;;;;4.54;88.68;98722.58;213703;1322;25287;-73
2021/12/19 09:58:16;;;;;;;;;;;;;;;4.54;88.74;98716.66;213403;1319;23998;-72
2021/12/19 10:11:44;;;;;;;;;;;;;;;;;;;;;
2021/12/19 10:38:15;;;;;;;;;;;;;;;4.75;88.57;98660.06;213329;1324;23726;-73
2021/12/19 10:58:12;;;;;;;;;;;;;;;4.92;88.04;98621.86;213380;1324;24379;-73
2021/12/19 11:04:22;;;;;;;;;;;;;;;4.93;87.91;98612.68;213172;1325;23048;-71
2021/12/19 11:17:06;;;;;;;;;;;;;;;4.89;87.87;98598.75;213281;1326;22633;-72
2021/12/19 11:43:18;;;;;;;;;;;;;;;4.65;88.35;98560.90;213306;1324;22600;-73
2021/12/19 11:49:50;;;;;;;;;;;;;;;4.61;88.65;98559.48;213450;1325;25079;-72
2021/12/19 12:03:13;;;;;;;;;;;;;;;;;;;;;
2021/12/19 12:29:22;;;;;;;;;;;;;;;4.82;88.05;98494.34;213055;1321;22589;-71
2021/12/19 12:42:03;;;;;;;;;;;;;;;4.80;87.36;98494.98;213614;1324;22789;-72
2021/12/19 12:48:30;;;;;;;;;;;;;;;4.72;87.44;98491.95;213767;1323;25102;-72
2021/12/19 13:07:42;;;;;;;;;;;;;;;;;;;;;
2021/12/19 13:34:20;;;;;;;;;;;;;;;3.86;89.03;98446.84;213112;1323;25448;-71
2021/12/19 13:54:14;;;;;;;;;;;;;;;3.96;89.76;98425.14;213733;1324;22647;-72
2021/12/19 14:00:21;;;;;;;;;;;;;;;;;;;;;
2021/12/19 14:06:04;;;;;;;;;;;;;;;3.95;89.56;98412.20;213567;1324;25238;-71
2021/12/19 14:11:18;;;;;;;;;;;;;;;3.88;89.60;98398.63;213702;1324;22590;-70
2021/12/19 14:16:59;;;;;;;;;;;;;;;;;;;;;
2021/12/19 14:22:27;;;;;;;;;;;;;;;3.73;90.08;98399.47;213512;1324;22665;-70
2021/12/19 14:33:36;;;;;;;;;;;;;;;3.71;90.51;98396.59;214241;1322;22552;-71
2021/12/19 14:39:01;;;;;;;;;;;;;;;3.71;90.31;98386.04;214012;1320;25742;-72
2021/12/19 14:44:16;;;;;;;;;;;;;;;3.71;90.42;98387.41;213904;1325;22638;-72
2021/12/19 14:49:18;;;;;;;;;;;;;;;3.71;90.51;98384.09;213837;1324;22566;-71
2021/12/19 14:55:07;;;;;;;;;;;;;;;3.70;90.69;98385.39;213603;1325;26195;-71
2021/12/19 15:01:22;;;;;;;;;;;;;;;;;;;;;
2021/12/19 15:07:21;;;;;;;;;;;;;;;3.62;90.99;98357.52;213455;1327;22574;-72
2021/12/19 15:12:26;;;;;;;;;;;;;;;3.63;91.04;98345.30;213385;1328;22593;-72
2021/12/19 15:17:33;;;;;;;;;;;;;;;3.62;90.89;98353.60;213434;1326;23035;-73
2021/12/19 15:23:25;;;;;;;;;;;;;;;3.66;90.84;98347.06;213601;1324;22629;-72
2021/12/19 15:28:57;;;;;;;;;;;;;;;3.68;90.81;98337.23;213815;1320;22810;-72
2021/12/19 15:34:51;;;;;;;;;;;;;;;3.71;90.68;98332.37;214125;1323;25080;-71
2021/12/19 15:41:01;;;;;;;;;;;;;;;3.73;90.74;98333.11;213928;1324;22702;-72
2021/12/19 15:47:30;;;;;;;;;;;;;;;;;;;;;
2021/12/19 15:53:46;;;;;;;;;;;;;;;3.78;90.22;98316.41;213182;1324;22551;-72
2021/12/19 15:58:57;;;;;;;;;;;;;;;3.80;90.07;98307.00;213740;1325;22580;-72
2021/12/19 16:04:33;;;;;;;;;;;;;;;3.81;89.85;98297.04;213955;1316;22651;-71
2021/12/19 16:09:49;;;;;;;;;;;;;;;3.81;89.72;98286.77;213782;1324;22540;-71
2021/12/19 16:14:51;;;;;;;;;;;;;;;3.82;89.81;98290.79;213808;1324;22613;-72
2021/12/19 16:19:54;;;;;;;;;;;;;;;3.83;89.62;98291.50;213774;1325;22554;-72
2021/12/19 16:25:06;;;;;;;;;;;;;;;3.84;89.57;98303.99;213673;1325;22518;-72
2021/12/19 16:31:01;;;;;;;;;;;;;;;3.86;89.39;98301.91;213814;1322;22736;-72
2021/12/19 16:37:06;;;;;;;;;;;;;;;;;;;;;
2021/12/19 16:43:29;;;;;;;;;;;;;;;3.93;89.50;98289.75;213804;1323;22584;-72
2021/12/19 16:47:31;;;;;;;;;;;;;;;3.94;89.45;98281.91;213843;1322;22601;-71
2021/12/19 16:52:59;;;;;;;;;;;;;;;3.94;89.31;98264.37;214413;1323;22571;-71
2021/12/19 16:58:42;;;;;;;;;;;;;;;3.93;89.40;98262.39;213997;1324;22630;-72
2021/12/19 17:03:48;;;;;;;;;;;;;;;3.93;89.32;98244.27;214408;1322;22621;-71
2021/12/19 17:09:28;;;;;;;;;;;;;;;3.92;89.19;98243.84;213856;1324;24313;-72
2021/12/19 17:14:49;;;;;;;;;;;;;;;3.93;89.34;98254.17;213725;1324;22720;-71
2021/12/19 17:20:20;;;;;;;;;;;;;;;3.94;89.52;98239.73;213472;1323;24288;-72
2021/12/19 17:32:11;;;;;;;;;;;;;;;3.92;89.88;98237.21;213503;1325;22700;-72
2021/12/19 17:38:10;;;;;;;;;;;;;;;;;;;;;
2021/12/19 17:43:28;;;;;;;;;;;;;;;3.82;90.41;98221.95;213975;1323;22612;-72
2021/12/19 17:49:12;;;;;;;;;;;;;;;3.78;90.43;98222.24;213858;1322;22489;-71
2021/12/19 17:54:18;;;;;;;;;;;;;;;3.74;90.70;98215.41;213636;1324;22570;-71
2021/12/19 18:06:44;;;;;;;;;;;;;;;3.70;91.30;98216.97;214043;1322;25436;-70
2021/12/19 18:17:51;;;;;;;;;;;;;;;3.70;91.59;98214.63;213930;1324;22681;-69
2021/12/19 18:23:25;;;;;;;;;;;;;;;3.70;91.88;98215.59;212802;1324;22776;-71
2021/12/19 18:29:25;;;;;;;;;;;;;;;;;;;;;
2021/12/19 18:34:35;;;;;;;;;;;;;;;3.70;92.05;98204.25;213928;1320;25449;-71
2021/12/19 18:40:54;;;;;;;;;;;;;;;3.70;92.22;98197.95;213970;1323;24324;-70
2021/12/19 18:52:59;;;;;;;;;;;;;;;;;;;;;
2021/12/19 18:59:05;;;;;;;;;;;;;;;3.70;92.21;98197.21;213829;1323;22587;-70
2021/12/19 19:04:34;;;;;;;;;;;;;;;3.69;92.40;98244.14;214222;1323;22547;-70
2021/12/19 19:10:08;;;;;;;;;;;;;;;;;;;;;
2021/12/19 19:15:54;;;;;;;;;;;;;;;2.74;90.27;98289.48;213769;1324;24257;-72
2021/12/19 19:22:17;;;;;;;;;;;;;;;;;;;;;
2021/12/19 19:28:04;;;;;;;;;;;;;;;2.13;91.08;98301.05;214042;1323;25480;-71
2021/12/19 19:33:22;;;;;;;;;;;;;;;1.97;91.10;98287.84;214080;1323;22551;-71
2021/12/19 19:40:12;;;;;;;;;;;;;;;1.85;91.31;98288.64;213953;1316;24234;-71
2021/12/19 19:57:05;;;;;;;;;;;;;;;1.77;91.48;98304.25;213731;1323;22574;-72
2021/12/19 20:09:22;;;;;;;;;;;;;;;;;;;;;
2021/12/19 20:15:00;;;;;;;;;;;;;;;1.54;91.02;98328.00;213762;1322;24401;-71
2021/12/19 20:20:14;;;;;;;;;;;;;;;;;;;;;
2021/12/19 20:25:19;;;;;;;;;;;;;;;1.38;90.92;98344.48;213769;1325;23223;-70
2021/12/19 20:30:22;;;;;;;;;;;;;;;1.32;90.42;98350.33;214068;1321;22535;-71
2021/12/19 20:35:25;;;;;;;;;;;;;;;1.23;90.37;98363.05;214267;1323;22619;-71
2021/12/19 20:40:36;;;;;;;;;;;;;;;1.20;90.28;98375.20;215441;1323;23773;-69
2021/12/19 20:45:38;;;;;;;;;;;;;;;1.18;90.48;98374.58;214504;1323;24356;-73
2021/12/19 20:50:41;;;;;;;;;;;;;;;1.14;90.39;98377.98;213998;1323;22559;-73
2021/12/19 20:55:56;;;;;;;;;;;;;;;1.11;90.56;98384.67;213832;1323;22601;-71
2021/12/19 21:01:13;;;;;;;;;;;;;;;1.07;90.17;98394.42;213844;1323;22609;-70
2021/12/19 21:06:15;;;;;;;;;;;;;;;1.00;90.11;98399.73;213174;1323;24299;-72
2021/12/19 21:11:18;;;;;;;;;;;;;;;0.94;90.20;98410.45;213736;1325;23889;-70
2021/12/19 21:22:45;;;;;;;;;;;;;;;0.83;90.32;98418.04;213177;1324;24455;-71
2021/12/19 21:28:01;;;;;;;;;;;;;;;0.76;89.95;98415.45;213502;1321;26546;-70
2021/12/19 21:34:07;;;;;;;;;;;;;;;0.67;89.85;98420.02;213679;1325;25294;-71
2021/12/19 21:46:26;;;;;;;;;;;;;;;;;;;;;
2021/12/19 21:51:32;;;;;;;;;;;;;;;0.48;89.84;98437.70;214071;1324;23837;-69
2021/12/19 21:56:44;;;;;;;;;;;;;;;0.42;89.98;98436.85;213872;1325;22611;-70
2021/12/19 22:02:31;;;;;;;;;;;;;;;;;;;;;
2021/12/19 22:08:00;;;;;;;;;;;;;;;0.32;90.05;98451.74;213662;1325;22633;-71
2021/12/19 22:13:31;;;;;;;;;;;;;;;0.28;90.12;98455.09;213592;1324;22569;-71
2021/12/19 22:25:01;;;;;;;;;;;;;;;0.17;90.27;98460.05;212390;1326;22889;-70
2021/12/19 22:30:39;;;;;;;;;;;;;;;0.07;89.83;98460.87;213084;1323;22803;-69
2021/12/19 22:36:20;;;;;;;;;;;;;;;0.00;90.03;98463.49;212879;1323;25249;-69
2021/12/19 22:42:34;;;;;;;;;;;;;;;-0.05;90.11;98464.55;212734;1324;22635;-70
2021/12/19 22:48:16;;;;;;;;;;;;;;;;;;;;;
2021/12/19 22:59:57;;;;;;;;;;;;;;;-0.18;90.06;98472.05;212998;1323;25272;-70
2021/12/19 23:05:28;;;;;;;;;;;;;;;-0.23;89.82;98471.25;212329;1325;23023;-70
2021/12/19 23:10:31;;;;;;;;;;;;;;;-0.28;89.92;98472.45;212436;1322;25566;-69
2021/12/19 23:15:39;;;;;;;;;;;;;;;-0.35;90.10;98463.60;212348;1323;25300;-71
2021/12/19 23:21:00;;;;;;;;;;;;;;;-0.42;90.04;98470.30;213597;1325;22764;-70
2021/12/19 23:26:05;;;;;;;;;;;;;;;-0.48;89.98;98471.73;213782;1325;25400;-70
2021/12/19 23:31:08;;;;;;;;;;;;;;;-0.54;90.13;98475.69;213758;1323;22567;-70
2021/12/19 23:55:42;;;;;;;;;;;;;;;;;;;;;
